SBSPSBMG

Guest
Details From SBSP - Sao Paulo Congonhas
To SBMG - REGIONAL DE MARINGA SILVIO NAME JUNIOR
Flight Number -
Tags generated
Created
Modified
Stats Distance 296 nm / 549 km
Max Altitude 18,200 ft / 5,547 m
Waypoints 4
Social Downloads 3
Likes 0
Share VATSIM

Download

Looking for another format? Having issues loading an existing format? Contact us
Advertisement - Login to hide

Notes

Basic altitude profile: - Ascent Rate: 2500ft/min - Ascent Speed: 250kts - Cruise Altitude: 35000ft - Cruise Speed: 420kts - Descent Rate: 1500ft/min - Descent Speed: 250kts Options: - Use NATs: yes - Use PACOTS: yes - Use low airways: yes - Use high airways: yes

Route

SBSP SCB A428 KARIU SBMG

ID Type Via Altitude Latitude Longitude Leg Dist Tot Dist Heading (true) Name
O SBSP APT - 0 ft / 0 m -23.62669˚ -46.65538˚ - 0 nm - Sao Paulo Congonhas
SCB VOR - 14,400 ft / 4,389 m -23.50700˚ -47.37817˚ 40 nm 40 nm 280° / 280° SOROCABA VOR-DME
KARIU FIX A428 (AWY-LO) 18,200 ft / 5,547 m -23.37900˚ -50.38933˚ 166 nm 206 nm 272° / 273° -
O SBMG APT - 0 ft / 0 m -23.47611˚ -52.01640˚ 89 nm 296 nm 266° / 267° REGIONAL DE MARINGA SILVIO NAME JUNIOR

Altitude Profile

Advertisement - Login to hide

Weather


0- 5 10 15 20 25 30 35+ Temperature / ° C

Clouds and Precipitation
Forecast for 2017-12-17 18:00 UTC. Updated an hour ago

Ground ~20,000 ft ~40,000 ft Winds

SBSP

Details ICAO SBSP (CGH)
Name Sao Paulo Congonhas
Region Brazil
Timezone America/Sao_Paulo (UTC-2.0)
Stats Elevation 2,631 ft / 802 m (AMSL)
Location -23.626693° -46.655377°
Runways 2
Magnetic Variation 21.296° W

METAR

SBSP 171800Z 29007KT 180V350 9999 SCT049 31/14 Q1017

Decode

TAF

TAF SBSP 170911Z 1712/1812 06005KT CAVOK TX30/1717Z TN19/1808Z TEMPO 1712/1717 31005KT SCT045 PROB30 1718/1722 6000 TSRA SCT045 FEW050CB BECMG 1801/1803 08005KT TEMPO 1809/1812 33008KT RMK PHM

Decode

Departure Runways

ID Width Length Bearing (true) Bearing (mag) Surface Threshold Offset Overrun Length
17L 147 ft / 45 m 4,726 ft / 1,441 m 147.28° 168.58° Asphalt 0 ft / 0 m 220 ft / 67 m
17R 147 ft / 45 m 6,406 ft / 1,953 m 147.39° 168.69° Asphalt 413 ft / 126 m 0 ft / 0 m
35L 147 ft / 45 m 6,406 ft / 1,953 m 327.38° 348.68° Asphalt 200 ft / 61 m 0 ft / 0 m
35R 147 ft / 45 m 4,726 ft / 1,441 m 327.28° 348.58° Asphalt 0 ft / 0 m 0 ft / 0 m

SBMG

Details ICAO SBMG (MGF)
Name REGIONAL DE MARINGA SILVIO NAME JUNIOR
Region Brazil
Timezone America/Sao_Paulo (UTC-2.0)
Stats Elevation 1,788 ft / 545 m (AMSL)
Location -23.476112° -52.016404°
Runways 1
Magnetic Variation 18.517° W

METAR

SBMG 171800Z 01006KT 9999 BKN040 FEW045TCU 33/21 Q1012

Decode

TAF

Not found

Destination Runways

ID Width Length Bearing (true) Bearing (mag) Surface Threshold Offset Overrun Length
09 147 ft / 45 m 6,893 ft / 2,101 m 77.96° 96.48° Asphalt 0 ft / 0 m 195 ft / 59 m
27 147 ft / 45 m 6,893 ft / 2,101 m 257.95° 276.47° Asphalt 0 ft / 0 m 195 ft / 59 m